createdAt,value
2022-09-07T00:01:00.357Z,79.49
2022-09-07T00:04:09.582Z,79.01
2022-09-07T00:07:18.123Z,79.03
2022-09-07T00:10:27.247Z,79.26
2022-09-07T00:13:38.684Z,78.22
2022-09-07T00:16:49.300Z,78.72
2022-09-07T00:19:57.892Z,79.17
2022-09-07T00:23:06.323Z,79.29
2022-09-07T00:26:19.259Z,78.88
2022-09-07T00:29:27.556Z,78.37
2022-09-07T00:32:37.187Z,78.84
2022-09-07T00:35:46.371Z,78.15
2022-09-07T00:38:55.346Z,78.55
2022-09-07T00:42:03.541Z,77.96
2022-09-07T00:45:18.578Z,78.69
2022-09-07T00:48:37.364Z,77.76
2022-09-07T00:51:53.553Z,77.68
2022-09-07T00:55:09.766Z,78.30
2022-09-07T00:58:19.847Z,78.35
2022-09-07T01:01:28.614Z,78.06
2022-09-07T01:04:40.737Z,77.91
2022-09-07T01:07:49.498Z,78.56
2022-09-07T01:11:01.437Z,78.54
2022-09-07T01:14:16.149Z,78.46
2022-09-07T01:17:37.519Z,79.13
2022-09-07T01:21:09.226Z,79.02
2022-09-07T01:25:01.046Z,79.77
2022-09-07T01:28:20.266Z,79.81
2022-09-07T01:31:43.526Z,80.30
2022-09-07T01:34:55.756Z,80.96
2022-09-07T01:38:16.037Z,80.70
2022-09-07T01:41:32.105Z,80.57
2022-09-07T01:44:48.297Z,80.91
2022-09-07T01:48:01.511Z,80.50
2022-09-07T01:51:09.779Z,79.96
2022-09-07T01:54:28.360Z,79.32
2022-09-07T01:57:44.734Z,78.67
2022-09-07T02:01:01.874Z,78.95
2022-09-07T02:04:16.073Z,77.32
2022-09-07T02:07:31.668Z,77.40
2022-09-07T02:10:47.430Z,77.75
2022-09-07T02:14:02.220Z,77.60
2022-09-07T02:17:19.177Z,78.21
2022-09-07T02:20:34.453Z,78.42
2022-09-07T02:23:51.776Z,78.50
2022-09-07T02:27:05.107Z,77.85
2022-09-07T02:30:14.693Z,78.07
2022-09-07T02:33:24.812Z,77.75
2022-09-07T02:36:41.072Z,77.95
2022-09-07T02:39:50.164Z,77.64
2022-09-07T02:43:02.223Z,77.85
2022-09-07T02:46:31.709Z,78.20
2022-09-07T02:50:38.988Z,78.14
2022-09-07T02:54:10.554Z,78.52
2022-09-07T02:57:33.260Z,78.38
2022-09-07T03:00:56.661Z,78.78
2022-09-07T03:04:14.885Z,78.28
2022-09-07T03:07:33.560Z,78.86
2022-09-07T03:10:44.989Z,78.49
2022-09-07T03:13:53.263Z,78.16
2022-09-07T03:17:02.746Z,78.29
2022-09-07T03:20:12.138Z,78.68
2022-09-07T03:23:21.801Z,78.42
2022-09-07T03:26:30.104Z,78.48
2022-09-07T03:29:41.876Z,77.96
2022-09-07T03:32:50.495Z,77.75
2022-09-07T03:36:02.341Z,77.83
2022-09-07T03:39:14.241Z,77.66
2022-09-07T03:42:22.996Z,76.07
2022-09-07T03:45:31.239Z,75.67
2022-09-07T03:48:40.009Z,75.28
2022-09-07T03:51:48.393Z,76.63
2022-09-07T03:54:58.265Z,76.72
2022-09-07T03:58:06.814Z,76.71
2022-09-07T04:01:18.969Z,76.68
2022-09-07T04:04:27.436Z,76.43
2022-09-07T04:07:35.750Z,77.15
2022-09-07T04:10:45.384Z,76.81
2022-09-07T04:13:53.753Z,76.95
2022-09-07T04:17:02.194Z,76.45
2022-09-07T04:20:11.920Z,76.34
2022-09-07T04:23:21.036Z,76.66
2022-09-07T04:26:34.308Z,77.10
2022-09-07T04:29:42.550Z,76.46
2022-09-07T04:32:51.556Z,77.26
2022-09-07T04:36:02.251Z,76.40
2022-09-07T04:39:12.337Z,76.36
2022-09-07T04:42:22.595Z,75.75
2022-09-07T04:45:31.226Z,76.03
2022-09-07T04:48:39.798Z,76.41
2022-09-07T04:51:48.747Z,76.24
2022-09-07T04:54:57.044Z,76.87
2022-09-07T04:58:07.981Z,76.64
2022-09-07T05:01:20.032Z,76.86
2022-09-07T05:04:28.405Z,77.47
2022-09-07T05:07:37.012Z,76.38
2022-09-07T05:10:53.094Z,76.53
2022-09-07T05:14:04.915Z,76.57
2022-09-07T05:17:13.147Z,76.03
2022-09-07T05:24:11.874Z,75.33
2022-09-07T05:27:22.028Z,74.70
2022-09-07T05:37:29.425Z,74.93
2022-09-07T05:40:40.683Z,74.18
2022-09-07T05:47:21.447Z,73.45
2022-09-07T05:50:29.741Z,72.81
2022-09-07T05:53:41.953Z,72.72
2022-09-07T05:56:53.892Z,72.03
2022-09-07T06:00:02.396Z,72.06
2022-09-07T06:03:21.946Z,70.91
2022-09-07T06:06:30.489Z,70.57
2022-09-07T06:13:07.348Z,62.68
2022-09-07T06:16:18.396Z,59.01
2022-09-07T06:19:28.437Z,59.42
2022-09-07T06:22:37.619Z,60.70
2022-09-07T06:25:50.036Z,61.57
2022-09-07T06:28:59.103Z,62.36
2022-09-07T06:35:37.086Z,66.40
2022-09-07T06:38:46.979Z,67.00
2022-09-07T06:41:58.670Z,68.19
2022-09-07T06:45:12.264Z,68.68
2022-09-07T06:48:20.959Z,67.43
2022-09-07T06:51:32.018Z,62.74
2022-09-07T06:55:02.127Z,55.69
2022-09-07T06:58:10.425Z,53.60
2022-09-07T07:01:21.066Z,50.37
2022-09-07T07:04:29.412Z,48.04
2022-09-07T07:07:39.275Z,46.60
2022-09-07T07:10:47.955Z,45.40
2022-09-07T07:13:56.125Z,42.22
2022-09-07T07:17:04.764Z,40.72
2022-09-07T07:20:13.555Z,44.13
2022-09-07T07:23:23.180Z,45.52
2022-09-07T07:26:32.600Z,45.73
2022-09-07T07:29:40.739Z,43.19
2022-09-07T07:32:49.990Z,43.51
2022-09-07T07:36:13.665Z,46.70
2022-09-07T07:42:52.416Z,51.54
2022-09-07T07:46:05.440Z,52.62
2022-09-07T07:49:14.335Z,53.81
2022-09-07T07:55:52.460Z,54.62
2022-09-07T07:59:01.579Z,53.94
2022-09-07T08:02:16.959Z,54.33
2022-09-07T08:05:25.891Z,53.28
2022-09-07T08:08:34.551Z,52.42
2022-09-07T08:11:44.036Z,50.58
2022-09-07T08:14:54.049Z,48.81
2022-09-07T08:18:02.464Z,49.72
2022-09-07T08:21:15.034Z,50.83
2022-09-07T08:24:23.285Z,50.94
2022-09-07T08:27:33.150Z,49.78
2022-09-07T08:30:41.302Z,48.92
2022-09-07T08:33:52.504Z,49.65
2022-09-07T08:37:00.842Z,50.96
2022-09-07T08:40:16.770Z,50.31
2022-09-07T08:43:49.277Z,50.97
2022-09-07T08:47:04.448Z,49.00
2022-09-07T08:50:21.895Z,50.01
2022-09-07T08:53:30.792Z,50.30
2022-09-07T08:57:20.554Z,49.30
2022-09-07T09:00:17.626Z,49.30
2022-09-07T09:03:32.464Z,48.85
2022-09-07T09:06:56.637Z,50.10
2022-09-07T09:10:27.336Z,48.88
2022-09-07T09:13:52.326Z,47.27
2022-09-07T09:17:10.640Z,48.74
2022-09-07T09:20:27.495Z,49.69
2022-09-07T09:23:41.913Z,49.74
2022-09-07T09:26:57.751Z,48.45
2022-09-07T09:30:15.264Z,47.02
2022-09-07T09:33:27.435Z,48.02
2022-09-07T09:36:43.017Z,47.37
2022-09-07T09:40:02.771Z,46.28
2022-09-07T09:43:26.258Z,47.19
2022-09-07T09:46:38.723Z,48.00
2022-09-07T09:49:48.935Z,46.73
2022-09-07T09:52:59.339Z,45.52
2022-09-07T09:56:09.002Z,47.17
2022-09-07T10:06:37.347Z,46.79
2022-09-07T10:09:52.141Z,46.84
2022-09-07T10:13:00.738Z,47.37
2022-09-07T10:16:12.067Z,48.51
2022-09-07T10:19:32.631Z,48.21
2022-09-07T10:22:48.480Z,47.40
2022-09-07T10:25:59.087Z,45.65
2022-09-07T10:29:17.408Z,45.64
2022-09-07T10:32:43.235Z,45.48
2022-09-07T10:36:01.025Z,45.48
2022-09-07T10:39:18.527Z,44.68
2022-09-07T10:42:32.879Z,44.46
2022-09-07T10:46:00.129Z,45.11
2022-09-07T10:49:27.429Z,45.11
2022-09-07T10:52:49.897Z,44.09
2022-09-07T10:56:09.846Z,44.60
2022-09-07T11:03:43.643Z,45.93
2022-09-07T11:07:01.494Z,44.96
2022-09-07T11:10:28.461Z,45.33
2022-09-07T11:14:11.323Z,45.31
2022-09-07T11:17:21.635Z,45.24
2022-09-07T11:20:35.559Z,44.58
2022-09-07T11:23:51.178Z,46.42
2022-09-07T11:27:05.091Z,46.26
2022-09-07T11:30:26.240Z,46.72
2022-09-07T11:33:42.145Z,46.74
2022-09-07T11:37:02.184Z,46.95
2022-09-07T11:40:22.697Z,45.40
2022-09-07T11:43:40.597Z,46.35
2022-09-07T11:46:56.393Z,45.60
2022-09-07T11:50:05.649Z,45.96
2022-09-07T11:53:21.383Z,46.49
2022-09-07T11:56:36.972Z,45.53
2022-09-07T12:00:03.186Z,45.91
2022-09-07T12:03:39.951Z,48.27
2022-09-07T12:07:24.835Z,45.94
2022-09-07T12:11:05.538Z,46.11
2022-09-07T12:14:32.148Z,46.52
2022-09-07T12:18:02.968Z,46.57
2022-09-07T12:21:41.373Z,43.89
2022-09-07T12:24:53.230Z,45.24
2022-09-07T12:28:05.315Z,48.02
2022-09-07T12:31:14.609Z,46.46
2022-09-07T12:35:01.306Z,44.60
2022-09-07T12:39:01.007Z,44.95
2022-09-07T12:42:33.122Z,45.85
2022-09-07T12:45:55.091Z,44.21
2022-09-07T12:49:16.819Z,45.40
2022-09-07T12:52:49.698Z,43.12
2022-09-07T12:56:19.931Z,43.89
2022-09-07T12:59:53.762Z,45.29
2022-09-07T13:07:29.908Z,44.44
2022-09-07T13:10:40.776Z,44.15
2022-09-07T13:14:04.564Z,43.77
2022-09-07T13:17:55.672Z,43.50
2022-09-07T13:21:43.048Z,42.73
2022-09-07T13:24:52.783Z,41.64
2022-09-07T13:28:04.442Z,42.51
2022-09-07T13:31:45.147Z,42.45
2022-09-07T13:35:17.499Z,41.25
2022-09-07T13:38:26.425Z,41.21
2022-09-07T13:41:42.724Z,41.54
2022-09-07T13:44:57.871Z,41.04
2022-09-07T13:48:20.386Z,41.43
2022-09-07T13:51:41.956Z,41.03
2022-09-07T13:55:09.386Z,41.68
2022-09-07T13:58:22.620Z,41.43
2022-09-07T14:01:31.392Z,40.10
2022-09-07T14:04:44.390Z,41.66
2022-09-07T14:07:54.027Z,39.70
2022-09-07T14:11:02.299Z,42.56
2022-09-07T14:14:16.647Z,42.31
2022-09-07T14:17:25.209Z,41.09
2022-09-07T14:20:43.246Z,41.40
2022-09-07T14:23:53.419Z,41.92
2022-09-07T14:27:03.049Z,41.78
2022-09-07T14:30:29.741Z,41.83
2022-09-07T14:33:38.733Z,42.79
2022-09-07T14:36:48.320Z,42.42
2022-09-07T14:39:59.536Z,41.07
2022-09-07T14:43:30.071Z,42.06
2022-09-07T14:46:40.829Z,42.73
2022-09-07T14:49:53.318Z,41.79
2022-09-07T14:56:40.828Z,42.23
2022-09-07T14:59:49.935Z,41.18
2022-09-07T15:02:58.615Z,40.47
2022-09-07T15:06:09.029Z,42.11
2022-09-07T15:09:31.671Z,41.48
2022-09-07T15:12:44.080Z,41.45
2022-09-07T15:16:04.707Z,41.90
2022-09-07T15:19:33.516Z,41.70
2022-09-07T15:22:42.008Z,39.95
2022-09-07T15:25:54.106Z,41.26
2022-09-07T15:29:11.813Z,44.44
2022-09-07T15:32:20.712Z,47.10
2022-09-07T15:35:29.204Z,47.81
2022-09-07T15:45:39.822Z,49.55
2022-09-07T15:48:52.416Z,50.01
2022-09-07T15:52:07.637Z,50.75
2022-09-07T15:55:17.663Z,51.25
2022-09-07T15:58:26.273Z,52.27
2022-09-07T16:01:52.539Z,51.94
2022-09-07T16:05:01.426Z,51.97
2022-09-07T16:08:25.978Z,51.08
2022-09-07T16:11:35.288Z,51.67
2022-09-07T16:14:43.657Z,51.77
2022-09-07T16:17:53.826Z,51.26
2022-09-07T16:21:12.201Z,51.82
2022-09-07T16:24:21.025Z,52.54
2022-09-07T16:27:32.206Z,51.57
2022-09-07T16:30:42.163Z,51.62
2022-09-07T16:33:52.287Z,52.00
2022-09-07T16:37:00.473Z,53.03
2022-09-07T16:40:10.179Z,53.88
2022-09-07T16:43:19.131Z,54.71
2022-09-07T16:46:30.769Z,55.19
2022-09-07T16:49:42.732Z,56.26
2022-09-07T16:52:51.368Z,56.91
2022-09-07T16:56:03.645Z,57.74
2022-09-07T16:59:19.611Z,58.45
2022-09-07T17:02:28.012Z,58.57
2022-09-07T17:05:41.184Z,59.18
2022-09-07T17:08:49.801Z,59.87
2022-09-07T17:11:58.350Z,59.22
2022-09-07T17:15:08.380Z,60.28
2022-09-07T17:18:16.720Z,61.16
2022-09-07T17:21:26.711Z,61.99
2022-09-07T17:24:34.853Z,62.80
2022-09-07T17:27:44.087Z,62.76
2022-09-07T17:30:52.364Z,63.03
2022-09-07T17:34:00.861Z,63.67
2022-09-07T17:37:10.352Z,63.56
2022-09-07T17:40:19.248Z,64.79
2022-09-07T17:43:53.594Z,65.29
2022-09-07T17:46:55.487Z,65.00
2022-09-07T17:50:04.748Z,65.06
2022-09-07T17:53:14.650Z,65.77
2022-09-07T17:56:23.133Z,65.79
2022-09-07T18:02:59.733Z,66.14
2022-09-07T18:06:08.974Z,66.17
2022-09-07T18:09:19.757Z,66.23
2022-09-07T18:12:28.054Z,66.91
2022-09-07T18:15:41.126Z,67.03
2022-09-07T18:18:50.185Z,67.33
2022-09-07T18:21:58.357Z,68.21
2022-09-07T18:25:10.361Z,68.71
2022-09-07T18:31:46.906Z,68.69
2022-09-07T18:34:55.083Z,69.65
2022-09-07T18:38:08.164Z,70.27
2022-09-07T18:41:18.297Z,70.97
2022-09-07T18:47:59.926Z,71.35
2022-09-07T18:51:11.719Z,71.88
2022-09-07T18:54:20.803Z,71.71
2022-09-07T18:57:32.223Z,71.35
2022-09-07T19:00:46.359Z,71.19
2022-09-07T19:03:58.097Z,70.75
2022-09-07T19:07:08.571Z,70.14
2022-09-07T19:10:17.833Z,70.64
2022-09-07T19:13:27.628Z,71.41
2022-09-07T19:16:39.390Z,71.75
2022-09-07T19:19:49.338Z,72.03
2022-09-07T19:22:58.708Z,72.44
2022-09-07T19:26:10.123Z,72.63
2022-09-07T19:29:23.419Z,72.12
2022-09-07T19:32:34.114Z,72.30
2022-09-07T19:35:43.010Z,72.19
2022-09-07T19:38:52.544Z,71.59
2022-09-07T19:42:01.831Z,71.28
2022-09-07T19:45:14.289Z,71.26
2022-09-07T19:48:23.513Z,70.66
2022-09-07T19:51:36.709Z,71.09
2022-09-07T19:54:46.129Z,71.85
2022-09-07T19:57:55.388Z,72.32
2022-09-07T20:01:14.923Z,73.02
2022-09-07T20:04:26.300Z,72.88
2022-09-07T20:07:35.399Z,73.27
2022-09-07T20:10:44.413Z,73.14
2022-09-07T20:13:53.642Z,73.21
2022-09-07T20:17:04.942Z,73.24
2022-09-07T20:20:14.644Z,72.78
2022-09-07T20:23:24.117Z,73.17
2022-09-07T20:26:34.096Z,73.33
2022-09-07T20:29:43.487Z,73.36
2022-09-07T20:32:54.140Z,73.31
2022-09-07T20:36:14.738Z,73.16
2022-09-07T20:39:24.708Z,73.72
2022-09-07T20:42:33.722Z,73.41
2022-09-07T20:45:42.353Z,73.75
2022-09-07T20:48:52.790Z,73.94
2022-09-07T20:52:01.925Z,74.29
2022-09-07T20:55:12.755Z,74.76
2022-09-07T20:58:21.719Z,75.65
2022-09-07T21:01:33.683Z,75.94
2022-09-07T21:04:43.947Z,76.16
2022-09-07T21:07:52.090Z,76.55
2022-09-07T21:11:05.409Z,76.71
2022-09-07T21:14:14.658Z,76.61
2022-09-07T21:17:23.123Z,77.16
2022-09-07T21:20:33.585Z,77.12
2022-09-07T21:23:41.845Z,77.09
2022-09-07T21:26:51.762Z,77.16
2022-09-07T21:30:00.144Z,77.06
2022-09-07T21:33:08.673Z,76.50
2022-09-07T21:36:18.413Z,76.56
2022-09-07T21:39:26.638Z,76.31
2022-09-07T21:42:35.122Z,75.84
2022-09-07T21:45:43.631Z,76.20
2022-09-07T21:48:52.177Z,76.38
2022-09-07T21:52:01.855Z,76.75
2022-09-07T21:55:10.780Z,77.71
2022-09-07T21:58:19.487Z,77.04
2022-09-07T22:01:30.121Z,77.49
2022-09-07T22:04:38.601Z,77.53
2022-09-07T22:07:48.321Z,77.92
2022-09-07T22:11:04.104Z,77.54
2022-09-07T22:14:15.689Z,77.85
2022-09-07T22:17:23.783Z,77.88
2022-09-07T22:20:32.224Z,78.76
2022-09-07T22:23:45.430Z,78.93
2022-09-07T22:26:54.309Z,79.23
2022-09-07T22:30:02.977Z,78.69
2022-09-07T22:33:11.285Z,78.39
2022-09-07T22:36:22.973Z,79.01
2022-09-07T22:39:32.720Z,78.65
2022-09-07T22:42:40.919Z,78.76
2022-09-07T22:45:49.012Z,77.96
2022-09-07T22:48:59.648Z,78.88
2022-09-07T22:52:07.771Z,77.60
2022-09-07T22:55:17.630Z,77.10
2022-09-07T22:58:28.906Z,77.22
2022-09-07T23:01:38.079Z,77.14
2022-09-07T23:04:46.558Z,77.03
2022-09-07T23:07:56.009Z,76.55
2022-09-07T23:11:06.500Z,76.76
2022-09-07T23:14:19.007Z,77.73
2022-09-07T23:17:27.356Z,76.97
2022-09-07T23:20:35.823Z,77.17
2022-09-07T23:23:44.275Z,76.88
2022-09-07T23:26:54.104Z,77.08
2022-09-07T23:30:02.690Z,76.91
2022-09-07T23:33:10.957Z,77.32
2022-09-07T23:36:20.090Z,77.69
2022-09-07T23:39:28.323Z,79.22
2022-09-07T23:42:38.103Z,80.01
2022-09-07T23:45:46.518Z,79.10
2022-09-07T23:48:54.964Z,79.11
2022-09-07T23:52:03.838Z,78.81
2022-09-07T23:55:13.312Z,77.93
2022-09-07T23:58:24.538Z,76.41
